sensor_id;sensor_type;location;lat;lon;timestamp;temperature;humidity
5226;DHT22;2632;51.666;7.146;2023-07-24T00:00:53;18.60;99.90
5226;DHT22;2632;51.666;7.146;2023-07-24T00:03:19;18.60;99.90
5226;DHT22;2632;51.666;7.146;2023-07-24T00:05:46;18.60;99.90
5226;DHT22;2632;51.666;7.146;2023-07-24T00:08:13;18.60;99.90
5226;DHT22;2632;51.666;7.146;2023-07-24T00:10:39;18.60;99.90
5226;DHT22;2632;51.666;7.146;2023-07-24T00:13:06;18.60;99.90
5226;DHT22;2632;51.666;7.146;2023-07-24T00:15:33;18.50;99.90
5226;DHT22;2632;51.666;7.146;2023-07-24T00:18:00;18.40;99.90
5226;DHT22;2632;51.666;7.146;2023-07-24T00:20:26;18.40;99.90
5226;DHT22;2632;51.666;7.146;2023-07-24T00:22:53;18.40;99.90
5226;DHT22;2632;51.666;7.146;2023-07-24T00:25:20;18.40;99.90
5226;DHT22;2632;51.666;7.146;2023-07-24T00:27:47;18.30;99.90
5226;DHT22;2632;51.666;7.146;2023-07-24T00:30:13;18.30;99.90
5226;DHT22;2632;51.666;7.146;2023-07-24T00:32:40;18.30;99.90
5226;DHT22;2632;51.666;7.146;2023-07-24T00:35:07;18.20;99.90
5226;DHT22;2632;51.666;7.146;2023-07-24T00:37:34;18.30;99.90
5226;DHT22;2632;51.666;7.146;2023-07-24T00:40:02;18.20;99.90
5226;DHT22;2632;51.666;7.146;2023-07-24T00:42:29;18.20;99.90
5226;DHT22;2632;51.666;7.146;2023-07-24T00:44:56;18.20;99.90
5226;DHT22;2632;51.666;7.146;2023-07-24T00:47:22;18.20;99.90
5226;DHT22;2632;51.666;7.146;2023-07-24T00:49:51;18.10;99.90
5226;DHT22;2632;51.666;7.146;2023-07-24T00:52:18;18.10;99.90
5226;DHT22;2632;51.666;7.146;2023-07-24T00:54:45;16.50;99.90
5226;DHT22;2632;51.666;7.146;2023-07-24T00:57:13;17.00;99.90
5226;DHT22;2632;51.666;7.146;2023-07-24T00:59:40;18.10;99.90
5226;DHT22;2632;51.666;7.146;2023-07-24T01:02:08;18.10;99.90
5226;DHT22;2632;51.666;7.146;2023-07-24T01:04:35;18.10;99.90
5226;DHT22;2632;51.666;7.146;2023-07-24T01:07:02;18.10;99.90
5226;DHT22;2632;51.666;7.146;2023-07-24T01:09:29;18.10;99.90
5226;DHT22;2632;51.666;7.146;2023-07-24T01:12:01;18.00;99.90
5226;DHT22;2632;51.666;7.146;2023-07-24T01:14:49;18.00;99.90
5226;DHT22;2632;51.666;7.146;2023-07-24T01:17:23;18.00;99.90
5226;DHT22;2632;51.666;7.146;2023-07-24T01:19:55;18.10;99.90
5226;DHT22;2632;51.666;7.146;2023-07-24T01:27:45;18.10;99.90
5226;DHT22;2632;51.666;7.146;2023-07-24T01:30:14;18.10;99.90
5226;DHT22;2632;51.666;7.146;2023-07-24T01:32:40;18.10;99.90
5226;DHT22;2632;51.666;7.146;2023-07-24T01:35:08;18.10;99.90
5226;DHT22;2632;51.666;7.146;2023-07-24T01:37:35;18.20;99.90
5226;DHT22;2632;51.666;7.146;2023-07-24T01:40:02;18.20;99.90
5226;DHT22;2632;51.666;7.146;2023-07-24T01:42:29;18.10;99.90
5226;DHT22;2632;51.666;7.146;2023-07-24T01:44:56;18.20;99.90
5226;DHT22;2632;51.666;7.146;2023-07-24T01:47:23;18.10;99.90
5226;DHT22;2632;51.666;7.146;2023-07-24T01:49:50;18.10;99.90
5226;DHT22;2632;51.666;7.146;2023-07-24T01:52:17;18.10;99.90
5226;DHT22;2632;51.666;7.146;2023-07-24T01:54:44;18.20;99.90
5226;DHT22;2632;51.666;7.146;2023-07-24T01:57:11;18.20;99.90
5226;DHT22;2632;51.666;7.146;2023-07-24T01:59:37;18.20;99.90
5226;DHT22;2632;51.666;7.146;2023-07-24T02:02:04;18.10;99.90
5226;DHT22;2632;51.666;7.146;2023-07-24T02:04:31;18.20;99.90
5226;DHT22;2632;51.666;7.146;2023-07-24T02:06:58;18.20;99.90
5226;DHT22;2632;51.666;7.146;2023-07-24T02:09:24;18.20;99.90
5226;DHT22;2632;51.666;7.146;2023-07-24T02:11:51;18.20;99.90
5226;DHT22;2632;51.666;7.146;2023-07-24T02:14:18;18.20;99.90
5226;DHT22;2632;51.666;7.146;2023-07-24T02:16:45;18.10;99.90
5226;DHT22;2632;51.666;7.146;2023-07-24T02:19:12;19.00;99.90
5226;DHT22;2632;51.666;7.146;2023-07-24T02:21:38;18.20;99.90
5226;DHT22;2632;51.666;7.146;2023-07-24T02:24:07;18.50;99.90
5226;DHT22;2632;51.666;7.146;2023-07-24T02:26:33;18.20;99.90
5226;DHT22;2632;51.666;7.146;2023-07-24T02:29:00;18.20;99.90
5226;DHT22;2632;51.666;7.146;2023-07-24T02:31:27;18.20;99.90
5226;DHT22;2632;51.666;7.146;2023-07-24T02:33:53;18.20;99.90
5226;DHT22;2632;51.666;7.146;2023-07-24T02:36:20;18.20;99.90
5226;DHT22;2632;51.666;7.146;2023-07-24T02:38:47;18.20;99.90
5226;DHT22;2632;51.666;7.146;2023-07-24T02:41:13;18.20;99.90
5226;DHT22;2632;51.666;7.146;2023-07-24T02:43:40;18.20;99.90
5226;DHT22;2632;51.666;7.146;2023-07-24T02:46:07;18.20;99.90
5226;DHT22;2632;51.666;7.146;2023-07-24T02:48:34;18.20;99.90
5226;DHT22;2632;51.666;7.146;2023-07-24T02:51:01;18.20;99.90
5226;DHT22;2632;51.666;7.146;2023-07-24T02:53:27;18.20;99.90
5226;DHT22;2632;51.666;7.146;2023-07-24T02:55:54;18.20;99.90
5226;DHT22;2632;51.666;7.146;2023-07-24T02:58:21;18.20;99.90
5226;DHT22;2632;51.666;7.146;2023-07-24T03:00:47;18.10;99.90
5226;DHT22;2632;51.666;7.146;2023-07-24T03:03:14;18.20;99.90
5226;DHT22;2632;51.666;7.146;2023-07-24T03:05:41;18.20;99.90
5226;DHT22;2632;51.666;7.146;2023-07-24T03:08:07;18.10;99.90
5226;DHT22;2632;51.666;7.146;2023-07-24T03:10:34;18.20;99.90
5226;DHT22;2632;51.666;7.146;2023-07-24T03:13:01;18.10;99.90
5226;DHT22;2632;51.666;7.146;2023-07-24T03:15:27;18.00;99.90
5226;DHT22;2632;51.666;7.146;2023-07-24T03:17:54;18.20;99.90
5226;DHT22;2632;51.666;7.146;2023-07-24T03:20:21;18.20;99.90
5226;DHT22;2632;51.666;7.146;2023-07-24T03:22:47;18.20;99.90
5226;DHT22;2632;51.666;7.146;2023-07-24T03:25:15;18.30;99.90
5226;DHT22;2632;51.666;7.146;2023-07-24T03:27:42;18.30;99.90
5226;DHT22;2632;51.666;7.146;2023-07-24T03:30:09;18.30;99.90
5226;DHT22;2632;51.666;7.146;2023-07-24T03:32:37;18.30;99.90
5226;DHT22;2632;51.666;7.146;2023-07-24T03:35:05;18.20;99.90
5226;DHT22;2632;51.666;7.146;2023-07-24T03:37:36;18.20;99.90
5226;DHT22;2632;51.666;7.146;2023-07-24T03:40:03;18.20;99.90
5226;DHT22;2632;51.666;7.146;2023-07-24T03:42:31;18.20;99.90
5226;DHT22;2632;51.666;7.146;2023-07-24T03:44:58;18.20;99.90
5226;DHT22;2632;51.666;7.146;2023-07-24T03:47:26;18.20;99.90
5226;DHT22;2632;51.666;7.146;2023-07-24T03:49:52;18.20;99.90
5226;DHT22;2632;51.666;7.146;2023-07-24T03:52:19;18.20;99.90
5226;DHT22;2632;51.666;7.146;2023-07-24T03:54:46;18.20;99.90
5226;DHT22;2632;51.666;7.146;2023-07-24T03:57:13;18.20;99.90
5226;DHT22;2632;51.666;7.146;2023-07-24T03:59:39;18.20;99.90
5226;DHT22;2632;51.666;7.146;2023-07-24T04:02:06;18.10;99.90
5226;DHT22;2632;51.666;7.146;2023-07-24T04:04:37;18.10;99.90
5226;DHT22;2632;51.666;7.146;2023-07-24T04:07:04;18.20;99.90
5226;DHT22;2632;51.666;7.146;2023-07-24T04:09:31;18.10;99.90
5226;DHT22;2632;51.666;7.146;2023-07-24T04:11:58;18.10;99.90
5226;DHT22;2632;51.666;7.146;2023-07-24T04:14:24;18.10;99.90
5226;DHT22;2632;51.666;7.146;2023-07-24T04:16:51;18.10;99.90
5226;DHT22;2632;51.666;7.146;2023-07-24T04:19:17;18.10;99.90
5226;DHT22;2632;51.666;7.146;2023-07-24T04:21:44;18.10;99.90
5226;DHT22;2632;51.666;7.146;2023-07-24T04:24:11;18.10;99.90
5226;DHT22;2632;51.666;7.146;2023-07-24T04:26:37;18.10;99.90
5226;DHT22;2632;51.666;7.146;2023-07-24T04:29:06;18.10;99.90
5226;DHT22;2632;51.666;7.146;2023-07-24T04:31:33;18.10;99.90
5226;DHT22;2632;51.666;7.146;2023-07-24T04:34:00;18.10;99.90
5226;DHT22;2632;51.666;7.146;2023-07-24T04:36:26;18.10;99.90
5226;DHT22;2632;51.666;7.146;2023-07-24T04:38:54;18.10;99.90
5226;DHT22;2632;51.666;7.146;2023-07-24T04:41:20;18.10;99.90
5226;DHT22;2632;51.666;7.146;2023-07-24T04:43:47;18.10;99.90
5226;DHT22;2632;51.666;7.146;2023-07-24T04:46:13;18.10;99.90
5226;DHT22;2632;51.666;7.146;2023-07-24T04:48:40;18.20;99.90
5226;DHT22;2632;51.666;7.146;2023-07-24T04:51:07;18.20;99.90
5226;DHT22;2632;51.666;7.146;2023-07-24T04:53:33;18.10;99.90
5226;DHT22;2632;51.666;7.146;2023-07-24T04:56:00;18.10;99.90
5226;DHT22;2632;51.666;7.146;2023-07-24T04:58:27;18.10;99.90
5226;DHT22;2632;51.666;7.146;2023-07-24T05:00:53;18.00;99.90
5226;DHT22;2632;51.666;7.146;2023-07-24T05:03:20;18.10;99.90
5226;DHT22;2632;51.666;7.146;2023-07-24T05:05:56;18.20;99.90
5226;DHT22;2632;51.666;7.146;2023-07-24T05:08:23;18.20;99.90
5226;DHT22;2632;51.666;7.146;2023-07-24T05:10:56;18.20;99.90
5226;DHT22;2632;51.666;7.146;2023-07-24T05:13:23;18.20;99.90
5226;DHT22;2632;51.666;7.146;2023-07-24T05:15:50;18.20;99.90
5226;DHT22;2632;51.666;7.146;2023-07-24T05:18:17;18.20;99.90
5226;DHT22;2632;51.666;7.146;2023-07-24T05:20:47;18.20;99.90
5226;DHT22;2632;51.666;7.146;2023-07-24T05:23:14;18.20;99.90
5226;DHT22;2632;51.666;7.146;2023-07-24T05:25:41;18.20;99.90
5226;DHT22;2632;51.666;7.146;2023-07-24T05:28:08;17.00;99.90
5226;DHT22;2632;51.666;7.146;2023-07-24T05:30:35;18.20;99.90
5226;DHT22;2632;51.666;7.146;2023-07-24T05:33:04;18.20;99.90
5226;DHT22;2632;51.666;7.146;2023-07-24T05:35:31;18.10;99.90
5226;DHT22;2632;51.666;7.146;2023-07-24T05:37:57;18.20;99.90
5226;DHT22;2632;51.666;7.146;2023-07-24T05:40:24;18.20;99.90
5226;DHT22;2632;51.666;7.146;2023-07-24T05:42:51;18.10;99.90
5226;DHT22;2632;51.666;7.146;2023-07-24T05:45:17;18.20;99.90
5226;DHT22;2632;51.666;7.146;2023-07-24T05:47:44;18.20;99.90
5226;DHT22;2632;51.666;7.146;2023-07-24T05:50:11;18.20;99.90
5226;DHT22;2632;51.666;7.146;2023-07-24T05:52:39;18.20;99.90
5226;DHT22;2632;51.666;7.146;2023-07-24T05:55:07;18.30;99.90
5226;DHT22;2632;51.666;7.146;2023-07-24T05:57:34;18.30;99.90
5226;DHT22;2632;51.666;7.146;2023-07-24T06:00:01;18.30;99.90
5226;DHT22;2632;51.666;7.146;2023-07-24T06:02:28;18.30;99.90
5226;DHT22;2632;51.666;7.146;2023-07-24T06:04:54;18.30;99.90
5226;DHT22;2632;51.666;7.146;2023-07-24T06:07:21;18.40;99.90
5226;DHT22;2632;51.666;7.146;2023-07-24T06:09:48;18.40;99.90
5226;DHT22;2632;51.666;7.146;2023-07-24T06:12:15;18.50;99.90
5226;DHT22;2632;51.666;7.146;2023-07-24T06:14:42;18.40;99.90
5226;DHT22;2632;51.666;7.146;2023-07-24T06:17:08;18.50;99.90
5226;DHT22;2632;51.666;7.146;2023-07-24T06:19:35;18.50;99.90
5226;DHT22;2632;51.666;7.146;2023-07-24T06:22:02;18.60;99.90
5226;DHT22;2632;51.666;7.146;2023-07-24T06:24:28;18.60;99.90
5226;DHT22;2632;51.666;7.146;2023-07-24T06:26:55;18.70;99.90
5226;DHT22;2632;51.666;7.146;2023-07-24T06:29:22;18.60;99.90
5226;DHT22;2632;51.666;7.146;2023-07-24T06:31:49;18.50;99.90
5226;DHT22;2632;51.666;7.146;2023-07-24T06:34:16;18.50;99.90
5226;DHT22;2632;51.666;7.146;2023-07-24T06:36:43;18.60;99.90
5226;DHT22;2632;51.666;7.146;2023-07-24T06:39:09;18.50;99.90
5226;DHT22;2632;51.666;7.146;2023-07-24T06:41:36;18.50;99.90
5226;DHT22;2632;51.666;7.146;2023-07-24T06:44:03;18.60;99.90
5226;DHT22;2632;51.666;7.146;2023-07-24T06:46:29;18.60;99.90
5226;DHT22;2632;51.666;7.146;2023-07-24T06:48:56;18.60;99.90
5226;DHT22;2632;51.666;7.146;2023-07-24T06:51:23;18.70;99.90
5226;DHT22;2632;51.666;7.146;2023-07-24T06:53:50;18.80;99.90
5226;DHT22;2632;51.666;7.146;2023-07-24T06:56:16;19.00;99.90
5226;DHT22;2632;51.666;7.146;2023-07-24T06:58:43;19.00;99.90
5226;DHT22;2632;51.666;7.146;2023-07-24T07:01:09;19.10;99.90
5226;DHT22;2632;51.666;7.146;2023-07-24T07:03:36;19.10;99.90
5226;DHT22;2632;51.666;7.146;2023-07-24T07:06:03;19.00;99.90
5226;DHT22;2632;51.666;7.146;2023-07-24T07:08:30;18.90;99.90
5226;DHT22;2632;51.666;7.146;2023-07-24T07:10:58;18.90;99.90
5226;DHT22;2632;51.666;7.146;2023-07-24T07:13:25;18.90;99.90
5226;DHT22;2632;51.666;7.146;2023-07-24T07:15:52;18.80;99.90
5226;DHT22;2632;51.666;7.146;2023-07-24T07:18:18;18.90;99.90
5226;DHT22;2632;51.666;7.146;2023-07-24T07:20:46;18.80;99.90
5226;DHT22;2632;51.666;7.146;2023-07-24T07:23:13;18.90;99.90
5226;DHT22;2632;51.666;7.146;2023-07-24T07:25:40;18.90;99.90
5226;DHT22;2632;51.666;7.146;2023-07-24T07:28:09;18.90;99.90
5226;DHT22;2632;51.666;7.146;2023-07-24T07:30:36;18.90;99.90
5226;DHT22;2632;51.666;7.146;2023-07-24T07:33:06;19.00;99.90
5226;DHT22;2632;51.666;7.146;2023-07-24T07:35:33;19.00;99.90
5226;DHT22;2632;51.666;7.146;2023-07-24T07:38:01;18.90;99.90
5226;DHT22;2632;51.666;7.146;2023-07-24T07:40:28;18.90;99.90
5226;DHT22;2632;51.666;7.146;2023-07-24T07:42:55;18.90;99.90
5226;DHT22;2632;51.666;7.146;2023-07-24T07:45:23;19.00;99.90
5226;DHT22;2632;51.666;7.146;2023-07-24T07:47:50;19.20;99.90
5226;DHT22;2632;51.666;7.146;2023-07-24T07:50:18;19.50;99.90
5226;DHT22;2632;51.666;7.146;2023-07-24T07:52:44;19.70;99.90
5226;DHT22;2632;51.666;7.146;2023-07-24T07:55:11;20.00;99.90
5226;DHT22;2632;51.666;7.146;2023-07-24T07:57:38;20.30;99.90
5226;DHT22;2632;51.666;7.146;2023-07-24T08:00:05;20.20;99.90
5226;DHT22;2632;51.666;7.146;2023-07-24T08:02:35;20.50;99.90
5226;DHT22;2632;51.666;7.146;2023-07-24T08:05:01;20.40;99.90
5226;DHT22;2632;51.666;7.146;2023-07-24T08:07:39;20.40;99.90
5226;DHT22;2632;51.666;7.146;2023-07-24T08:10:07;20.50;99.90
5226;DHT22;2632;51.666;7.146;2023-07-24T08:12:35;20.70;99.90
5226;DHT22;2632;51.666;7.146;2023-07-24T08:15:01;21.00;99.90
5226;DHT22;2632;51.666;7.146;2023-07-24T08:17:29;21.20;99.90
5226;DHT22;2632;51.666;7.146;2023-07-24T08:19:56;21.80;99.90
5226;DHT22;2632;51.666;7.146;2023-07-24T08:22:23;22.10;99.90
5226;DHT22;2632;51.666;7.146;2023-07-24T08:24:50;21.80;99.90
5226;DHT22;2632;51.666;7.146;2023-07-24T08:27:20;21.80;99.90
5226;DHT22;2632;51.666;7.146;2023-07-24T08:29:46;21.30;99.90
5226;DHT22;2632;51.666;7.146;2023-07-24T08:32:16;21.20;99.90
5226;DHT22;2632;51.666;7.146;2023-07-24T08:34:43;21.20;99.90
5226;DHT22;2632;51.666;7.146;2023-07-24T08:37:11;21.50;99.90
5226;DHT22;2632;51.666;7.146;2023-07-24T08:39:38;21.30;99.90
5226;DHT22;2632;51.666;7.146;2023-07-24T08:42:12;20.90;99.90
5226;DHT22;2632;51.666;7.146;2023-07-24T08:44:39;21.40;99.90
5226;DHT22;2632;51.666;7.146;2023-07-24T08:47:10;22.00;99.90
5226;DHT22;2632;51.666;7.146;2023-07-24T08:49:38;22.60;99.90
5226;DHT22;2632;51.666;7.146;2023-07-24T08:52:08;23.30;99.90
5226;DHT22;2632;51.666;7.146;2023-07-24T08:54:38;23.80;99.90
5226;DHT22;2632;51.666;7.146;2023-07-24T08:57:08;23.80;99.90
5226;DHT22;2632;51.666;7.146;2023-07-24T08:59:35;23.10;99.90
5226;DHT22;2632;51.666;7.146;2023-07-24T09:02:02;22.60;99.90
5226;DHT22;2632;51.666;7.146;2023-07-24T09:04:29;22.10;99.90
5226;DHT22;2632;51.666;7.146;2023-07-24T09:06:57;21.60;99.90
5226;DHT22;2632;51.666;7.146;2023-07-24T09:09:29;21.30;99.90
5226;DHT22;2632;51.666;7.146;2023-07-24T09:11:57;21.10;99.90
5226;DHT22;2632;51.666;7.146;2023-07-24T09:14:27;20.90;99.90
5226;DHT22;2632;51.666;7.146;2023-07-24T09:17:08;20.90;99.90
5226;DHT22;2632;51.666;7.146;2023-07-24T09:19:35;21.00;99.90
5226;DHT22;2632;51.666;7.146;2023-07-24T09:22:10;21.00;99.90
5226;DHT22;2632;51.666;7.146;2023-07-24T09:24:37;21.30;99.90
5226;DHT22;2632;51.666;7.146;2023-07-24T09:27:06;23.70;99.90
5226;DHT22;2632;51.666;7.146;2023-07-24T09:29:34;25.20;98.70
5226;DHT22;2632;51.666;7.146;2023-07-24T09:32:01;26.70;95.90
5226;DHT22;2632;51.666;7.146;2023-07-24T09:34:28;27.00;92.90
5226;DHT22;2632;51.666;7.146;2023-07-24T09:36:55;25.60;94.70
5226;DHT22;2632;51.666;7.146;2023-07-24T09:39:26;24.30;97.60
5226;DHT22;2632;51.666;7.146;2023-07-24T09:42:03;23.60;99.10
5226;DHT22;2632;51.666;7.146;2023-07-24T09:44:31;23.00;99.90
5226;DHT22;2632;51.666;7.146;2023-07-24T09:46:58;23.10;99.90
5226;DHT22;2632;51.666;7.146;2023-07-24T09:49:45;22.80;99.90
5226;DHT22;2632;51.666;7.146;2023-07-24T09:52:13;22.60;99.90
5226;DHT22;2632;51.666;7.146;2023-07-24T09:55:19;22.40;99.90
5226;DHT22;2632;51.666;7.146;2023-07-24T09:57:39;22.40;99.90
5226;DHT22;2632;51.666;7.146;2023-07-24T10:00:06;22.30;99.90
5226;DHT22;2632;51.666;7.146;2023-07-24T10:02:34;22.30;99.90
5226;DHT22;2632;51.666;7.146;2023-07-24T10:05:01;22.00;99.90
5226;DHT22;2632;51.666;7.146;2023-07-24T10:07:28;22.30;99.90
5226;DHT22;2632;51.666;7.146;2023-07-24T10:09:56;22.20;99.90
5226;DHT22;2632;51.666;7.146;2023-07-24T10:12:23;22.00;99.90
5226;DHT22;2632;51.666;7.146;2023-07-24T10:14:55;21.90;99.90
5226;DHT22;2632;51.666;7.146;2023-07-24T10:17:38;22.40;99.90
5226;DHT22;2632;51.666;7.146;2023-07-24T10:20:07;22.70;99.90
5226;DHT22;2632;51.666;7.146;2023-07-24T10:22:35;22.30;99.90
5226;DHT22;2632;51.666;7.146;2023-07-24T10:25:02;22.00;99.90
5226;DHT22;2632;51.666;7.146;2023-07-24T10:27:29;21.90;99.90
5226;DHT22;2632;51.666;7.146;2023-07-24T10:30:04;21.80;99.90
5226;DHT22;2632;51.666;7.146;2023-07-24T10:32:48;22.10;99.90
5226;DHT22;2632;51.666;7.146;2023-07-24T10:35:21;22.00;99.90
5226;DHT22;2632;51.666;7.146;2023-07-24T10:37:59;21.80;99.90
5226;DHT22;2632;51.666;7.146;2023-07-24T10:40:26;21.60;99.90
5226;DHT22;2632;51.666;7.146;2023-07-24T10:43:19;21.40;99.90
5226;DHT22;2632;51.666;7.146;2023-07-24T10:45:49;21.40;99.90
5226;DHT22;2632;51.666;7.146;2023-07-24T10:48:17;21.20;99.90
5226;DHT22;2632;51.666;7.146;2023-07-24T10:50:46;21.10;99.90
5226;DHT22;2632;51.666;7.146;2023-07-24T10:53:20;21.00;99.90
5226;DHT22;2632;51.666;7.146;2023-07-24T10:55:47;20.80;99.90
5226;DHT22;2632;51.666;7.146;2023-07-24T10:58:14;20.60;99.90
5226;DHT22;2632;51.666;7.146;2023-07-24T11:00:43;20.50;99.90
5226;DHT22;2632;51.666;7.146;2023-07-24T11:03:11;20.30;99.90
5226;DHT22;2632;51.666;7.146;2023-07-24T11:05:42;20.20;99.90
5226;DHT22;2632;51.666;7.146;2023-07-24T11:08:19;20.10;99.90
5226;DHT22;2632;51.666;7.146;2023-07-24T11:10:51;20.10;99.90
5226;DHT22;2632;51.666;7.146;2023-07-24T11:13:22;20.00;99.90
5226;DHT22;2632;51.666;7.146;2023-07-24T11:15:49;20.00;99.90
5226;DHT22;2632;51.666;7.146;2023-07-24T11:18:16;19.90;99.90
5226;DHT22;2632;51.666;7.146;2023-07-24T11:20:51;19.70;99.90
5226;DHT22;2632;51.666;7.146;2023-07-24T11:23:19;19.70;99.90
5226;DHT22;2632;51.666;7.146;2023-07-24T11:25:46;19.60;99.90
5226;DHT22;2632;51.666;7.146;2023-07-24T11:28:14;19.70;99.90
5226;DHT22;2632;51.666;7.146;2023-07-24T11:30:42;19.70;99.90
5226;DHT22;2632;51.666;7.146;2023-07-24T11:33:12;19.80;99.90
5226;DHT22;2632;51.666;7.146;2023-07-24T11:35:42;19.80;99.90
5226;DHT22;2632;51.666;7.146;2023-07-24T11:38:10;19.60;99.90
5226;DHT22;2632;51.666;7.146;2023-07-24T11:40:42;19.70;99.90
5226;DHT22;2632;51.666;7.146;2023-07-24T11:43:21;19.50;99.90
5226;DHT22;2632;51.666;7.146;2023-07-24T11:45:49;19.30;99.90
5226;DHT22;2632;51.666;7.146;2023-07-24T11:48:19;19.20;99.90
5226;DHT22;2632;51.666;7.146;2023-07-24T11:50:51;19.10;99.90
5226;DHT22;2632;51.666;7.146;2023-07-24T11:53:27;18.90;99.90
5226;DHT22;2632;51.666;7.146;2023-07-24T11:55:56;18.80;99.90
5226;DHT22;2632;51.666;7.146;2023-07-24T11:58:26;18.80;99.90
5226;DHT22;2632;51.666;7.146;2023-07-24T12:00:53;18.80;99.90
5226;DHT22;2632;51.666;7.146;2023-07-24T12:03:27;18.80;99.90
5226;DHT22;2632;51.666;7.146;2023-07-24T12:05:55;18.90;99.90
5226;DHT22;2632;51.666;7.146;2023-07-24T12:08:33;18.70;99.90
5226;DHT22;2632;51.666;7.146;2023-07-24T12:11:01;18.50;99.90
5226;DHT22;2632;51.666;7.146;2023-07-24T12:13:28;18.50;99.90
5226;DHT22;2632;51.666;7.146;2023-07-24T12:15:58;18.50;99.90
5226;DHT22;2632;51.666;7.146;2023-07-24T12:18:25;18.30;99.90
5226;DHT22;2632;51.666;7.146;2023-07-24T12:20:51;18.40;99.90
5226;DHT22;2632;51.666;7.146;2023-07-24T12:23:18;18.60;99.90
5226;DHT22;2632;51.666;7.146;2023-07-24T12:25:45;18.40;99.90
5226;DHT22;2632;51.666;7.146;2023-07-24T12:28:12;18.40;99.90
5226;DHT22;2632;51.666;7.146;2023-07-24T12:30:39;18.50;99.90
5226;DHT22;2632;51.666;7.146;2023-07-24T12:33:06;18.50;99.90
5226;DHT22;2632;51.666;7.146;2023-07-24T12:35:32;18.70;99.90
5226;DHT22;2632;51.666;7.146;2023-07-24T12:37:59;18.90;99.90
5226;DHT22;2632;51.666;7.146;2023-07-24T12:40:26;19.10;99.90
5226;DHT22;2632;51.666;7.146;2023-07-24T12:42:52;19.30;99.90
5226;DHT22;2632;51.666;7.146;2023-07-24T12:45:20;19.60;99.90
5226;DHT22;2632;51.666;7.146;2023-07-24T12:47:46;19.60;99.90
5226;DHT22;2632;51.666;7.146;2023-07-24T12:50:13;20.50;99.90
5226;DHT22;2632;51.666;7.146;2023-07-24T12:52:39;20.30;99.90
5226;DHT22;2632;51.666;7.146;2023-07-24T12:55:07;21.50;99.90
5226;DHT22;2632;51.666;7.146;2023-07-24T12:57:34;20.00;99.90
5226;DHT22;2632;51.666;7.146;2023-07-24T13:00:01;20.30;99.90
5226;DHT22;2632;51.666;7.146;2023-07-24T13:02:30;20.90;99.90
5226;DHT22;2632;51.666;7.146;2023-07-24T13:04:59;20.80;99.90
5226;DHT22;2632;51.666;7.146;2023-07-24T13:07:25;20.50;99.90
5226;DHT22;2632;51.666;7.146;2023-07-24T13:09:52;20.40;99.90
5226;DHT22;2632;51.666;7.146;2023-07-24T13:12:19;20.20;99.90
5226;DHT22;2632;51.666;7.146;2023-07-24T13:14:46;19.00;99.90
5226;DHT22;2632;51.666;7.146;2023-07-24T13:17:13;20.40;99.90
5226;DHT22;2632;51.666;7.146;2023-07-24T13:19:40;19.60;99.90
5226;DHT22;2632;51.666;7.146;2023-07-24T13:22:06;21.10;99.90
5226;DHT22;2632;51.666;7.146;2023-07-24T13:24:33;21.20;99.90
5226;DHT22;2632;51.666;7.146;2023-07-24T13:27:00;21.50;99.90
5226;DHT22;2632;51.666;7.146;2023-07-24T13:29:26;21.60;99.90
5226;DHT22;2632;51.666;7.146;2023-07-24T13:31:53;22.00;99.90
5226;DHT22;2632;51.666;7.146;2023-07-24T13:34:20;22.60;99.90
5226;DHT22;2632;51.666;7.146;2023-07-24T13:36:47;22.90;99.90
5226;DHT22;2632;51.666;7.146;2023-07-24T13:39:14;23.10;99.90
5226;DHT22;2632;51.666;7.146;2023-07-24T13:41:41;23.00;99.90
5226;DHT22;2632;51.666;7.146;2023-07-24T13:44:08;23.00;99.90
5226;DHT22;2632;51.666;7.146;2023-07-24T13:46:35;22.60;99.90
5226;DHT22;2632;51.666;7.146;2023-07-24T13:49:06;22.00;99.90
5226;DHT22;2632;51.666;7.146;2023-07-24T13:51:32;21.00;99.90
5226;DHT22;2632;51.666;7.146;2023-07-24T13:53:59;21.00;99.90
5226;DHT22;2632;51.666;7.146;2023-07-24T13:56:28;21.10;99.90
5226;DHT22;2632;51.666;7.146;2023-07-24T13:58:56;21.20;99.90
5226;DHT22;2632;51.666;7.146;2023-07-24T14:01:23;21.40;99.90
5226;DHT22;2632;51.666;7.146;2023-07-24T14:03:49;21.50;99.90
5226;DHT22;2632;51.666;7.146;2023-07-24T14:06:16;22.30;99.90
5226;DHT22;2632;51.666;7.146;2023-07-24T14:08:43;22.80;99.90
5226;DHT22;2632;51.666;7.146;2023-07-24T14:11:10;22.90;99.90
5226;DHT22;2632;51.666;7.146;2023-07-24T14:13:36;23.30;99.90
5226;DHT22;2632;51.666;7.146;2023-07-24T14:16:03;23.80;99.90
5226;DHT22;2632;51.666;7.146;2023-07-24T14:18:30;24.00;99.90
5226;DHT22;2632;51.666;7.146;2023-07-24T14:20:56;24.30;99.90
5226;DHT22;2632;51.666;7.146;2023-07-24T14:23:25;24.60;99.90
5226;DHT22;2632;51.666;7.146;2023-07-24T14:25:52;24.20;99.90
5226;DHT22;2632;51.666;7.146;2023-07-24T14:28:19;23.60;99.80
5226;DHT22;2632;51.666;7.146;2023-07-24T14:30:45;23.10;99.90
5226;DHT22;2632;51.666;7.146;2023-07-24T14:33:12;22.70;99.90
5226;DHT22;2632;51.666;7.146;2023-07-24T14:35:39;22.70;99.90
5226;DHT22;2632;51.666;7.146;2023-07-24T14:38:05;23.30;99.90
5226;DHT22;2632;51.666;7.146;2023-07-24T14:40:32;23.90;99.90
5226;DHT22;2632;51.666;7.146;2023-07-24T14:42:59;24.00;99.90
5226;DHT22;2632;51.666;7.146;2023-07-24T14:45:25;23.90;99.90
5226;DHT22;2632;51.666;7.146;2023-07-24T14:47:52;23.40;99.90
5226;DHT22;2632;51.666;7.146;2023-07-24T14:50:19;23.30;99.90
5226;DHT22;2632;51.666;7.146;2023-07-24T14:52:45;23.30;99.90
5226;DHT22;2632;51.666;7.146;2023-07-24T14:55:12;23.30;99.40
5226;DHT22;2632;51.666;7.146;2023-07-24T14:57:39;23.50;99.90
5226;DHT22;2632;51.666;7.146;2023-07-24T15:00:06;23.30;99.10
5226;DHT22;2632;51.666;7.146;2023-07-24T15:02:33;23.00;98.80
5226;DHT22;2632;51.666;7.146;2023-07-24T15:05:00;22.70;98.90
5226;DHT22;2632;51.666;7.146;2023-07-24T15:07:26;22.90;99.90
5226;DHT22;2632;51.666;7.146;2023-07-24T15:09:54;23.20;98.80
5226;DHT22;2632;51.666;7.146;2023-07-24T15:12:21;23.40;98.90
5226;DHT22;2632;51.666;7.146;2023-07-24T15:14:48;23.20;98.30
5226;DHT22;2632;51.666;7.146;2023-07-24T15:17:15;23.10;99.40
5226;DHT22;2632;51.666;7.146;2023-07-24T15:19:41;22.90;99.30
5226;DHT22;2632;51.666;7.146;2023-07-24T15:22:08;22.80;99.50
5226;DHT22;2632;51.666;7.146;2023-07-24T15:24:35;22.70;99.40
5226;DHT22;2632;51.666;7.146;2023-07-24T15:27:01;22.60;99.00
5226;DHT22;2632;51.666;7.146;2023-07-24T15:29:35;22.50;98.90
5226;DHT22;2632;51.666;7.146;2023-07-24T15:32:03;22.70;99.90
5226;DHT22;2632;51.666;7.146;2023-07-24T15:34:29;23.00;99.90
5226;DHT22;2632;51.666;7.146;2023-07-24T15:36:56;22.80;98.90
5226;DHT22;2632;51.666;7.146;2023-07-24T15:39:23;22.40;99.10
5226;DHT22;2632;51.666;7.146;2023-07-24T15:41:50;22.10;99.50
5226;DHT22;2632;51.666;7.146;2023-07-24T15:44:16;22.00;99.90
5226;DHT22;2632;51.666;7.146;2023-07-24T15:46:43;21.90;99.90
5226;DHT22;2632;51.666;7.146;2023-07-24T15:49:10;21.70;99.90
5226;DHT22;2632;51.666;7.146;2023-07-24T15:51:37;21.60;99.90
5226;DHT22;2632;51.666;7.146;2023-07-24T15:54:06;21.70;99.90
5226;DHT22;2632;51.666;7.146;2023-07-24T15:56:39;21.70;99.90
5226;DHT22;2632;51.666;7.146;2023-07-24T15:59:06;21.70;99.90
5226;DHT22;2632;51.666;7.146;2023-07-24T16:01:33;21.70;99.90
5226;DHT22;2632;51.666;7.146;2023-07-24T16:04:00;21.90;99.90
5226;DHT22;2632;51.666;7.146;2023-07-24T16:06:27;22.10;99.90
5226;DHT22;2632;51.666;7.146;2023-07-24T16:08:55;22.20;99.90
5226;DHT22;2632;51.666;7.146;2023-07-24T16:11:24;21.80;99.90